sensor_id;sensor_type;location;lat;lon;timestamp;pressure;altitude;pressure_sealevel;temperature;humidity
49455;BME280;69710;64.656;21.218;2023-08-24T00:00:43;101149.39;;;13.83;100.00
49455;BME280;69710;64.656;21.218;2023-08-24T00:03:11;101144.98;;;14.48;100.00
49455;BME280;69710;64.656;21.218;2023-08-24T00:05:39;101146.31;;;13.91;100.00
49455;BME280;69710;64.656;21.218;2023-08-24T00:08:06;101145.88;;;13.80;100.00
49455;BME280;69710;64.656;21.218;2023-08-24T00:10:34;101146.08;;;14.09;100.00
49455;BME280;69710;64.656;21.218;2023-08-24T00:13:03;101146.47;;;14.18;100.00
49455;BME280;69710;64.656;21.218;2023-08-24T00:15:30;101146.67;;;14.11;100.00
49455;BME280;69710;64.656;21.218;2023-08-24T00:17:58;101143.32;;;13.86;100.00
49455;BME280;69710;64.656;21.218;2023-08-24T00:20:26;101142.40;;;13.70;100.00
49455;BME280;69710;64.656;21.218;2023-08-24T00:22:54;101143.25;;;13.54;100.00
49455;BME280;69710;64.656;21.218;2023-08-24T00:25:22;101146.26;;;14.06;100.00
49455;BME280;69710;64.656;21.218;2023-08-24T00:27:49;101145.39;;;13.83;100.00
49455;BME280;69710;64.656;21.218;2023-08-24T00:30:17;101145.23;;;13.67;100.00
49455;BME280;69710;64.656;21.218;2023-08-24T00:32:44;101144.95;;;14.05;100.00
49455;BME280;69710;64.656;21.218;2023-08-24T00:35:12;101147.16;;;13.61;100.00
49455;BME280;69710;64.656;21.218;2023-08-24T00:37:41;101146.43;;;13.85;100.00
49455;BME280;69710;64.656;21.218;2023-08-24T00:40:09;101148.63;;;14.29;100.00
49455;BME280;69710;64.656;21.218;2023-08-24T00:42:38;101149.33;;;13.81;100.00
49455;BME280;69710;64.656;21.218;2023-08-24T00:45:07;101150.96;;;13.97;100.00
49455;BME280;69710;64.656;21.218;2023-08-24T00:47:34;101149.24;;;13.77;100.00
49455;BME280;69710;64.656;21.218;2023-08-24T00:50:04;101147.46;;;13.82;100.00
49455;BME280;69710;64.656;21.218;2023-08-24T00:52:33;101146.88;;;13.74;100.00
49455;BME280;69710;64.656;21.218;2023-08-24T00:55:01;101149.30;;;13.67;100.00
49455;BME280;69710;64.656;21.218;2023-08-24T00:57:29;101148.54;;;13.60;100.00
49455;BME280;69710;64.656;21.218;2023-08-24T00:59:57;101148.79;;;13.17;100.00
49455;BME280;69710;64.656;21.218;2023-08-24T01:02:26;101145.55;;;13.28;100.00
49455;BME280;69710;64.656;21.218;2023-08-24T01:04:54;101147.77;;;13.46;100.00
49455;BME280;69710;64.656;21.218;2023-08-24T01:07:22;101149.31;;;13.71;100.00
49455;BME280;69710;64.656;21.218;2023-08-24T01:09:49;101148.92;;;13.76;100.00
49455;BME280;69710;64.656;21.218;2023-08-24T01:12:23;101150.75;;;13.12;100.00
49455;BME280;69710;64.656;21.218;2023-08-24T01:15:01;101148.69;;;13.86;100.00
49455;BME280;69710;64.656;21.218;2023-08-24T01:17:32;101151.25;;;13.97;100.00
49455;BME280;69710;64.656;21.218;2023-08-24T01:20:04;101153.28;;;13.90;100.00
49455;BME280;69710;64.656;21.218;2023-08-24T01:22:36;101153.70;;;13.95;100.00
49455;BME280;69710;64.656;21.218;2023-08-24T01:25:13;101152.82;;;13.57;100.00
49455;BME280;69710;64.656;21.218;2023-08-24T01:27:43;101148.08;;;14.19;100.00
49455;BME280;69710;64.656;21.218;2023-08-24T01:30:11;101147.23;;;14.22;100.00
49455;BME280;69710;64.656;21.218;2023-08-24T01:32:39;101147.57;;;13.51;100.00
49455;BME280;69710;64.656;21.218;2023-08-24T01:35:08;101147.00;;;13.69;100.00
49455;BME280;69710;64.656;21.218;2023-08-24T01:37:36;101147.77;;;13.72;100.00
49455;BME280;69710;64.656;21.218;2023-08-24T01:40:06;101146.48;;;14.07;100.00
49455;BME280;69710;64.656;21.218;2023-08-24T01:42:36;101147.20;;;14.10;100.00
49455;BME280;69710;64.656;21.218;2023-08-24T01:45:06;101148.95;;;13.88;100.00
49455;BME280;69710;64.656;21.218;2023-08-24T01:47:35;101148.36;;;14.07;100.00
49455;BME280;69710;64.656;21.218;2023-08-24T01:50:05;101146.86;;;13.47;100.00
49455;BME280;69710;64.656;21.218;2023-08-24T01:52:34;101150.31;;;13.98;100.00
49455;BME280;69710;64.656;21.218;2023-08-24T01:55:03;101149.36;;;13.85;100.00
49455;BME280;69710;64.656;21.218;2023-08-24T01:57:31;101147.17;;;14.03;100.00
49455;BME280;69710;64.656;21.218;2023-08-24T01:59:58;101147.54;;;14.10;100.00
49455;BME280;69710;64.656;21.218;2023-08-24T02:02:26;101147.58;;;14.03;100.00
49455;BME280;69710;64.656;21.218;2023-08-24T02:04:54;101149.31;;;13.84;100.00
49455;BME280;69710;64.656;21.218;2023-08-24T02:07:22;101151.44;;;14.30;100.00
49455;BME280;69710;64.656;21.218;2023-08-24T02:09:49;101151.33;;;13.75;100.00
49455;BME280;69710;64.656;21.218;2023-08-24T02:12:16;101151.61;;;13.73;100.00
49455;BME280;69710;64.656;21.218;2023-08-24T02:14:44;101151.86;;;14.14;100.00
49455;BME280;69710;64.656;21.218;2023-08-24T02:17:11;101150.56;;;14.27;100.00
49455;BME280;69710;64.656;21.218;2023-08-24T02:19:39;101151.73;;;14.00;100.00
49455;BME280;69710;64.656;21.218;2023-08-24T02:22:07;101151.14;;;13.88;100.00
49455;BME280;69710;64.656;21.218;2023-08-24T02:24:35;101154.80;;;14.10;100.00
49455;BME280;69710;64.656;21.218;2023-08-24T02:27:04;101157.20;;;14.23;100.00
49455;BME280;69710;64.656;21.218;2023-08-24T02:29:31;101158.27;;;13.83;100.00
49455;BME280;69710;64.656;21.218;2023-08-24T02:31:59;101157.75;;;13.82;100.00
49455;BME280;69710;64.656;21.218;2023-08-24T02:34:26;101161.08;;;13.68;100.00
49455;BME280;69710;64.656;21.218;2023-08-24T02:37:00;101157.70;;;14.09;100.00
49455;BME280;69710;64.656;21.218;2023-08-24T02:39:30;101161.22;;;13.74;100.00
49455;BME280;69710;64.656;21.218;2023-08-24T02:41:58;101163.74;;;13.62;100.00
49455;BME280;69710;64.656;21.218;2023-08-24T02:44:27;101162.05;;;13.85;100.00
49455;BME280;69710;64.656;21.218;2023-08-24T02:46:55;101163.22;;;13.47;100.00
49455;BME280;69710;64.656;21.218;2023-08-24T02:49:26;101160.22;;;13.71;100.00
49455;BME280;69710;64.656;21.218;2023-08-24T02:51:54;101161.27;;;13.58;100.00
49455;BME280;69710;64.656;21.218;2023-08-24T02:54:22;101166.80;;;13.85;100.00
49455;BME280;69710;64.656;21.218;2023-08-24T02:56:50;101165.91;;;13.20;100.00
49455;BME280;69710;64.656;21.218;2023-08-24T02:59:18;101167.99;;;12.30;100.00
49455;BME280;69710;64.656;21.218;2023-08-24T03:01:51;101170.76;;;12.45;100.00
49455;BME280;69710;64.656;21.218;2023-08-24T03:04:18;101167.23;;;13.04;100.00
49455;BME280;69710;64.656;21.218;2023-08-24T03:06:46;101167.49;;;12.85;100.00
49455;BME280;69710;64.656;21.218;2023-08-24T03:09:13;101165.69;;;13.38;100.00
49455;BME280;69710;64.656;21.218;2023-08-24T03:11:41;101169.55;;;13.30;100.00
49455;BME280;69710;64.656;21.218;2023-08-24T03:14:10;101171.18;;;13.65;100.00
49455;BME280;69710;64.656;21.218;2023-08-24T03:16:38;101172.11;;;13.79;100.00
49455;BME280;69710;64.656;21.218;2023-08-24T03:19:06;101173.15;;;13.41;100.00
49455;BME280;69710;64.656;21.218;2023-08-24T03:21:34;101175.87;;;13.49;100.00
49455;BME280;69710;64.656;21.218;2023-08-24T03:24:01;101173.78;;;13.78;100.00
49455;BME280;69710;64.656;21.218;2023-08-24T03:26:28;101177.56;;;13.30;100.00
49455;BME280;69710;64.656;21.218;2023-08-24T03:29:00;101181.94;;;13.10;100.00
49455;BME280;69710;64.656;21.218;2023-08-24T03:31:28;101180.83;;;11.76;100.00
49455;BME280;69710;64.656;21.218;2023-08-24T03:33:56;101184.64;;;11.60;100.00
49455;BME280;69710;64.656;21.218;2023-08-24T03:36:23;101180.29;;;11.40;100.00
49455;BME280;69710;64.656;21.218;2023-08-24T03:38:50;101180.25;;;11.88;100.00
49455;BME280;69710;64.656;21.218;2023-08-24T03:41:18;101180.16;;;12.05;100.00
49455;BME280;69710;64.656;21.218;2023-08-24T03:43:46;101183.35;;;12.32;100.00
49455;BME280;69710;64.656;21.218;2023-08-24T03:46:13;101180.42;;;12.09;100.00
49455;BME280;69710;64.656;21.218;2023-08-24T03:48:41;101180.91;;;13.10;100.00
49455;BME280;69710;64.656;21.218;2023-08-24T03:51:08;101177.79;;;13.38;100.00
49455;BME280;69710;64.656;21.218;2023-08-24T03:53:36;101177.33;;;13.59;100.00
49455;BME280;69710;64.656;21.218;2023-08-24T03:56:04;101180.88;;;13.54;100.00
49455;BME280;69710;64.656;21.218;2023-08-24T03:58:31;101178.69;;;13.92;100.00
49455;BME280;69710;64.656;21.218;2023-08-24T04:00:58;101180.23;;;13.56;100.00
49455;BME280;69710;64.656;21.218;2023-08-24T04:03:27;101179.01;;;13.56;100.00
49455;BME280;69710;64.656;21.218;2023-08-24T04:05:57;101179.70;;;13.54;100.00
49455;BME280;69710;64.656;21.218;2023-08-24T04:08:26;101178.31;;;13.87;100.00
49455;BME280;69710;64.656;21.218;2023-08-24T04:10:53;101177.13;;;13.31;100.00
49455;BME280;69710;64.656;21.218;2023-08-24T04:13:20;101172.55;;;13.97;100.00
49455;BME280;69710;64.656;21.218;2023-08-24T04:15:48;101175.19;;;13.08;100.00
49455;BME280;69710;64.656;21.218;2023-08-24T04:18:16;101176.85;;;12.38;100.00
49455;BME280;69710;64.656;21.218;2023-08-24T04:20:44;101176.84;;;12.26;100.00
49455;BME280;69710;64.656;21.218;2023-08-24T04:23:13;101177.04;;;12.72;100.00
49455;BME280;69710;64.656;21.218;2023-08-24T04:25:41;101176.25;;;12.49;100.00
49455;BME280;69710;64.656;21.218;2023-08-24T04:28:09;101175.17;;;12.88;100.00
49455;BME280;69710;64.656;21.218;2023-08-24T04:30:37;101177.25;;;11.95;100.00
49455;BME280;69710;64.656;21.218;2023-08-24T04:33:06;101175.72;;;12.28;100.00
49455;BME280;69710;64.656;21.218;2023-08-24T04:35:35;101175.17;;;11.76;100.00
49455;BME280;69710;64.656;21.218;2023-08-24T04:38:02;101177.52;;;12.04;100.00
49455;BME280;69710;64.656;21.218;2023-08-24T04:40:38;101178.21;;;11.43;100.00
49455;BME280;69710;64.656;21.218;2023-08-24T04:43:10;101178.90;;;11.85;100.00
49455;BME280;69710;64.656;21.218;2023-08-24T04:45:38;101180.89;;;11.38;100.00
49455;BME280;69710;64.656;21.218;2023-08-24T04:48:06;101179.94;;;11.70;100.00
49455;BME280;69710;64.656;21.218;2023-08-24T04:50:34;101177.72;;;11.69;97.88
49455;BME280;69710;64.656;21.218;2023-08-24T04:53:01;101183.12;;;11.50;100.00
49455;BME280;69710;64.656;21.218;2023-08-24T04:55:29;101182.64;;;11.57;100.00
49455;BME280;69710;64.656;21.218;2023-08-24T04:57:57;101181.92;;;11.44;100.00
49455;BME280;69710;64.656;21.218;2023-08-24T05:00:24;101182.04;;;11.61;100.00
49455;BME280;69710;64.656;21.218;2023-08-24T05:02:51;101182.17;;;11.55;100.00
49455;BME280;69710;64.656;21.218;2023-08-24T05:05:19;101179.60;;;11.71;100.00
49455;BME280;69710;64.656;21.218;2023-08-24T05:07:46;101178.03;;;11.84;100.00
49455;BME280;69710;64.656;21.218;2023-08-24T05:10:15;101181.60;;;11.75;100.00
49455;BME280;69710;64.656;21.218;2023-08-24T05:12:43;101187.08;;;11.92;100.00
49455;BME280;69710;64.656;21.218;2023-08-24T05:15:11;101186.71;;;11.90;100.00
49455;BME280;69710;64.656;21.218;2023-08-24T05:17:38;101185.62;;;12.37;100.00
49455;BME280;69710;64.656;21.218;2023-08-24T05:20:07;101186.91;;;11.90;100.00
49455;BME280;69710;64.656;21.218;2023-08-24T05:22:35;101185.54;;;12.07;100.00
49455;BME280;69710;64.656;21.218;2023-08-24T05:25:04;101186.92;;;12.18;100.00
49455;BME280;69710;64.656;21.218;2023-08-24T05:27:32;101184.93;;;12.04;100.00
49455;BME280;69710;64.656;21.218;2023-08-24T05:30:00;101185.01;;;12.11;100.00
49455;BME280;69710;64.656;21.218;2023-08-24T05:32:32;101184.94;;;12.11;100.00
49455;BME280;69710;64.656;21.218;2023-08-24T05:35:00;101184.08;;;11.93;100.00
49455;BME280;69710;64.656;21.218;2023-08-24T05:37:28;101185.69;;;12.04;100.00
49455;BME280;69710;64.656;21.218;2023-08-24T05:39:57;101181.93;;;12.11;100.00
49455;BME280;69710;64.656;21.218;2023-08-24T05:42:24;101187.36;;;12.49;100.00
49455;BME280;69710;64.656;21.218;2023-08-24T05:44:53;101185.94;;;12.64;100.00
49455;BME280;69710;64.656;21.218;2023-08-24T05:47:21;101186.89;;;12.70;100.00
49455;BME280;69710;64.656;21.218;2023-08-24T05:49:49;101187.06;;;12.67;100.00
49455;BME280;69710;64.656;21.218;2023-08-24T05:52:17;101189.65;;;12.38;100.00
49455;BME280;69710;64.656;21.218;2023-08-24T05:54:44;101192.24;;;12.80;100.00
49455;BME280;69710;64.656;21.218;2023-08-24T05:57:11;101189.32;;;12.60;100.00
49455;BME280;69710;64.656;21.218;2023-08-24T05:59:39;101186.60;;;12.67;100.00
49455;BME280;69710;64.656;21.218;2023-08-24T06:02:07;101185.92;;;12.61;100.00
49455;BME280;69710;64.656;21.218;2023-08-24T06:04:34;101185.04;;;12.62;100.00
49455;BME280;69710;64.656;21.218;2023-08-24T06:07:02;101184.73;;;12.85;100.00
49455;BME280;69710;64.656;21.218;2023-08-24T06:09:30;101183.81;;;12.70;100.00
49455;BME280;69710;64.656;21.218;2023-08-24T06:11:58;101187.04;;;12.75;100.00
49455;BME280;69710;64.656;21.218;2023-08-24T06:14:26;101189.14;;;12.90;100.00
49455;BME280;69710;64.656;21.218;2023-08-24T06:16:53;101188.03;;;12.73;100.00
49455;BME280;69710;64.656;21.218;2023-08-24T06:19:21;101188.07;;;12.81;100.00
49455;BME280;69710;64.656;21.218;2023-08-24T06:21:49;101188.13;;;12.86;100.00
49455;BME280;69710;64.656;21.218;2023-08-24T06:24:16;101188.03;;;12.82;100.00
49455;BME280;69710;64.656;21.218;2023-08-24T06:26:46;101193.25;;;12.56;100.00
49455;BME280;69710;64.656;21.218;2023-08-24T06:29:14;101188.18;;;12.82;100.00
49455;BME280;69710;64.656;21.218;2023-08-24T06:31:43;101191.88;;;12.72;100.00
49455;BME280;69710;64.656;21.218;2023-08-24T06:34:11;101191.65;;;12.95;100.00
49455;BME280;69710;64.656;21.218;2023-08-24T06:36:39;101193.49;;;12.95;100.00
49455;BME280;69710;64.656;21.218;2023-08-24T06:39:06;101192.27;;;12.92;100.00
49455;BME280;69710;64.656;21.218;2023-08-24T06:41:35;101195.97;;;12.87;100.00
49455;BME280;69710;64.656;21.218;2023-08-24T06:44:05;101195.73;;;12.95;100.00
49455;BME280;69710;64.656;21.218;2023-08-24T06:46:35;101200.21;;;13.27;100.00
49455;BME280;69710;64.656;21.218;2023-08-24T06:49:02;101202.92;;;13.21;100.00
49455;BME280;69710;64.656;21.218;2023-08-24T06:51:30;101203.60;;;13.10;100.00
49455;BME280;69710;64.656;21.218;2023-08-24T06:53:58;101208.14;;;13.10;100.00
49455;BME280;69710;64.656;21.218;2023-08-24T06:56:27;101212.21;;;13.18;100.00
49455;BME280;69710;64.656;21.218;2023-08-24T06:58:55;101216.87;;;13.04;100.00
49455;BME280;69710;64.656;21.218;2023-08-24T07:01:22;101214.26;;;13.75;100.00
49455;BME280;69710;64.656;21.218;2023-08-24T07:03:50;101215.63;;;13.33;100.00
49455;BME280;69710;64.656;21.218;2023-08-24T07:06:18;101215.06;;;13.56;100.00
49455;BME280;69710;64.656;21.218;2023-08-24T07:08:46;101216.32;;;13.73;100.00
49455;BME280;69710;64.656;21.218;2023-08-24T07:11:14;101219.34;;;13.37;100.00
49455;BME280;69710;64.656;21.218;2023-08-24T07:13:42;101219.39;;;13.35;100.00
49455;BME280;69710;64.656;21.218;2023-08-24T07:16:09;101223.88;;;13.53;100.00
49455;BME280;69710;64.656;21.218;2023-08-24T07:18:37;101225.12;;;13.15;100.00
49455;BME280;69710;64.656;21.218;2023-08-24T07:21:06;101225.75;;;13.13;100.00
49455;BME280;69710;64.656;21.218;2023-08-24T07:23:34;101223.53;;;13.01;100.00
49455;BME280;69710;64.656;21.218;2023-08-24T07:26:02;101225.16;;;13.35;100.00
49455;BME280;69710;64.656;21.218;2023-08-24T07:28:30;101226.57;;;13.08;100.00
49455;BME280;69710;64.656;21.218;2023-08-24T07:30:59;101228.17;;;13.18;100.00
49455;BME280;69710;64.656;21.218;2023-08-24T07:33:34;101227.20;;;13.26;100.00
49455;BME280;69710;64.656;21.218;2023-08-24T07:36:02;101227.32;;;13.45;100.00
49455;BME280;69710;64.656;21.218;2023-08-24T07:38:30;101227.00;;;13.02;100.00
49455;BME280;69710;64.656;21.218;2023-08-24T07:40:58;101227.73;;;13.42;100.00
49455;BME280;69710;64.656;21.218;2023-08-24T07:43:27;101233.83;;;13.23;100.00
49455;BME280;69710;64.656;21.218;2023-08-24T07:45:55;101232.86;;;13.22;100.00
49455;BME280;69710;64.656;21.218;2023-08-24T07:48:22;101232.18;;;13.54;100.00
49455;BME280;69710;64.656;21.218;2023-08-24T07:50:50;101231.97;;;13.37;100.00
49455;BME280;69710;64.656;21.218;2023-08-24T07:53:18;101237.83;;;13.30;100.00
49455;BME280;69710;64.656;21.218;2023-08-24T07:55:46;101242.67;;;13.16;100.00
49455;BME280;69710;64.656;21.218;2023-08-24T07:58:14;101241.69;;;13.14;100.00
49455;BME280;69710;64.656;21.218;2023-08-24T08:00:42;101243.67;;;13.22;100.00
49455;BME280;69710;64.656;21.218;2023-08-24T08:03:09;101247.34;;;13.33;100.00
49455;BME280;69710;64.656;21.218;2023-08-24T08:05:37;101244.98;;;13.15;100.00
49455;BME280;69710;64.656;21.218;2023-08-24T08:08:05;101249.14;;;13.28;100.00
49455;BME280;69710;64.656;21.218;2023-08-24T08:10:33;101251.96;;;13.20;100.00
49455;BME280;69710;64.656;21.218;2023-08-24T08:13:00;101251.57;;;13.16;100.00
49455;BME280;69710;64.656;21.218;2023-08-24T08:15:28;101248.40;;;13.36;100.00
49455;BME280;69710;64.656;21.218;2023-08-24T08:17:55;101248.61;;;13.06;100.00
49455;BME280;69710;64.656;21.218;2023-08-24T08:20:23;101249.42;;;13.47;100.00
49455;BME280;69710;64.656;21.218;2023-08-24T08:22:51;101250.07;;;13.51;100.00
49455;BME280;69710;64.656;21.218;2023-08-24T08:25:19;101250.98;;;13.49;100.00
49455;BME280;69710;64.656;21.218;2023-08-24T08:27:47;101254.48;;;13.38;100.00
49455;BME280;69710;64.656;21.218;2023-08-24T08:30:15;101252.27;;;13.56;100.00
49455;BME280;69710;64.656;21.218;2023-08-24T08:32:43;101256.82;;;13.63;100.00
49455;BME280;69710;64.656;21.218;2023-08-24T08:35:11;101257.69;;;13.72;100.00
49455;BME280;69710;64.656;21.218;2023-08-24T08:37:39;101257.72;;;13.82;100.00
49455;BME280;69710;64.656;21.218;2023-08-24T08:40:10;101257.96;;;14.03;100.00
49455;BME280;69710;64.656;21.218;2023-08-24T08:42:38;101260.28;;;14.10;100.00
49455;BME280;69710;64.656;21.218;2023-08-24T08:45:09;101257.38;;;15.95;100.00
49455;BME280;69710;64.656;21.218;2023-08-24T08:47:38;101259.22;;;16.21;100.00
49455;BME280;69710;64.656;21.218;2023-08-24T08:50:06;101261.88;;;16.08;100.00
49455;BME280;69710;64.656;21.218;2023-08-24T08:52:34;101263.81;;;15.78;100.00
49455;BME280;69710;64.656;21.218;2023-08-24T08:55:02;101261.47;;;15.96;100.00
49455;BME280;69710;64.656;21.218;2023-08-24T08:57:30;101261.92;;;15.95;100.00
49455;BME280;69710;64.656;21.218;2023-08-24T08:59:58;101263.90;;;15.25;100.00
49455;BME280;69710;64.656;21.218;2023-08-24T09:02:26;101265.53;;;15.26;100.00
49455;BME280;69710;64.656;21.218;2023-08-24T09:04:56;101263.88;;;15.92;100.00
49455;BME280;69710;64.656;21.218;2023-08-24T09:07:24;101261.38;;;15.86;100.00
49455;BME280;69710;64.656;21.218;2023-08-24T09:09:52;101265.43;;;15.80;100.00
49455;BME280;69710;64.656;21.218;2023-08-24T09:12:20;101263.73;;;15.12;100.00
49455;BME280;69710;64.656;21.218;2023-08-24T09:14:48;101259.04;;;15.03;100.00
49455;BME280;69710;64.656;21.218;2023-08-24T09:17:22;101263.36;;;15.12;100.00
49455;BME280;69710;64.656;21.218;2023-08-24T09:19:55;101264.91;;;15.53;100.00
49455;BME280;69710;64.656;21.218;2023-08-24T09:22:24;101264.97;;;15.35;100.00
49455;BME280;69710;64.656;21.218;2023-08-24T09:24:53;101259.93;;;15.59;100.00
49455;BME280;69710;64.656;21.218;2023-08-24T09:27:22;101262.20;;;14.76;100.00
49455;BME280;69710;64.656;21.218;2023-08-24T09:29:50;101258.84;;;15.84;100.00
49455;BME280;69710;64.656;21.218;2023-08-24T09:32:23;101259.56;;;15.54;100.00
49455;BME280;69710;64.656;21.218;2023-08-24T09:34:51;101258.32;;;15.62;100.00
49455;BME280;69710;64.656;21.218;2023-08-24T09:37:19;101257.56;;;15.36;100.00
49455;BME280;69710;64.656;21.218;2023-08-24T09:39:47;101258.15;;;15.35;100.00
49455;BME280;69710;64.656;21.218;2023-08-24T09:42:14;101262.24;;;16.09;100.00
49455;BME280;69710;64.656;21.218;2023-08-24T09:44:44;101266.59;;;15.01;100.00
49455;BME280;69710;64.656;21.218;2023-08-24T09:47:12;101262.04;;;15.83;100.00
49455;BME280;69710;64.656;21.218;2023-08-24T09:49:40;101262.31;;;15.70;100.00
49455;BME280;69710;64.656;21.218;2023-08-24T09:52:08;101260.59;;;15.40;100.00
49455;BME280;69710;64.656;21.218;2023-08-24T09:54:37;101260.31;;;16.25;100.00
49455;BME280;69710;64.656;21.218;2023-08-24T09:57:06;101262.88;;;15.97;100.00
49455;BME280;69710;64.656;21.218;2023-08-24T09:59:35;101262.00;;;15.40;100.00
49455;BME280;69710;64.656;21.218;2023-08-24T10:02:14;101256.65;;;16.29;100.00
49455;BME280;69710;64.656;21.218;2023-08-24T10:04:43;101253.77;;;16.50;100.00
49455;BME280;69710;64.656;21.218;2023-08-24T10:07:12;101254.89;;;15.60;100.00
49455;BME280;69710;64.656;21.218;2023-08-24T10:09:47;101254.94;;;16.37;100.00
49455;BME280;69710;64.656;21.218;2023-08-24T10:12:24;101256.53;;;15.95;100.00
49455;BME280;69710;64.656;21.218;2023-08-24T10:14:59;101253.19;;;16.00;100.00
49455;BME280;69710;64.656;21.218;2023-08-24T10:17:28;101253.69;;;16.28;100.00
49455;BME280;69710;64.656;21.218;2023-08-24T10:20:03;101259.82;;;15.54;100.00
49455;BME280;69710;64.656;21.218;2023-08-24T10:22:34;101263.46;;;16.09;100.00
49455;BME280;69710;64.656;21.218;2023-08-24T10:25:03;101261.22;;;15.89;100.00
49455;BME280;69710;64.656;21.218;2023-08-24T10:27:32;101263.72;;;15.87;100.00
49455;BME280;69710;64.656;21.218;2023-08-24T10:30:00;101267.09;;;16.13;100.00
49455;BME280;69710;64.656;21.218;2023-08-24T10:32:29;101266.26;;;16.07;100.00
49455;BME280;69710;64.656;21.218;2023-08-24T10:34:57;101265.35;;;16.10;100.00
49455;BME280;69710;64.656;21.218;2023-08-24T10:37:27;101269.05;;;16.29;100.00
49455;BME280;69710;64.656;21.218;2023-08-24T10:39:55;101268.22;;;16.09;100.00
49455;BME280;69710;64.656;21.218;2023-08-24T10:42:22;101266.77;;;16.04;100.00
49455;BME280;69710;64.656;21.218;2023-08-24T10:44:51;101264.94;;;16.19;100.00
49455;BME280;69710;64.656;21.218;2023-08-24T10:47:20;101265.68;;;16.16;100.00
49455;BME280;69710;64.656;21.218;2023-08-24T10:49:58;101264.11;;;16.06;100.00
49455;BME280;69710;64.656;21.218;2023-08-24T10:52:31;101264.85;;;16.30;100.00
49455;BME280;69710;64.656;21.218;2023-08-24T10:55:01;101263.98;;;16.01;100.00
49455;BME280;69710;64.656;21.218;2023-08-24T10:57:35;101264.28;;;16.02;100.00
49455;BME280;69710;64.656;21.218;2023-08-24T11:00:05;101265.19;;;15.82;100.00
49455;BME280;69710;64.656;21.218;2023-08-24T11:02:42;101265.71;;;16.01;100.00
49455;BME280;69710;64.656;21.218;2023-08-24T11:05:16;101267.11;;;15.86;100.00
49455;BME280;69710;64.656;21.218;2023-08-24T11:07:53;101268.96;;;16.25;100.00
49455;BME280;69710;64.656;21.218;2023-08-24T11:10:22;101268.68;;;16.13;100.00
49455;BME280;69710;64.656;21.218;2023-08-24T11:13:07;101269.84;;;16.24;100.00
49455;BME280;69710;64.656;21.218;2023-08-24T11:15:38;101271.41;;;15.87;100.00
49455;BME280;69710;64.656;21.218;2023-08-24T11:18:23;101270.76;;;16.09;100.00
49455;BME280;69710;64.656;21.218;2023-08-24T11:20:53;101269.36;;;16.30;100.00
49455;BME280;69710;64.656;21.218;2023-08-24T11:23:23;101268.88;;;16.12;100.00
49455;BME280;69710;64.656;21.218;2023-08-24T11:25:51;101272.45;;;15.69;100.00
49455;BME280;69710;64.656;21.218;2023-08-24T11:28:20;101275.33;;;16.04;100.00
49455;BME280;69710;64.656;21.218;2023-08-24T11:30:48;101279.91;;;16.03;100.00
49455;BME280;69710;64.656;21.218;2023-08-24T11:33:16;101280.14;;;15.84;100.00
49455;BME280;69710;64.656;21.218;2023-08-24T11:35:45;101283.64;;;15.32;100.00
49455;BME280;69710;64.656;21.218;2023-08-24T11:38:13;101288.00;;;15.75;100.00
49455;BME280;69710;64.656;21.218;2023-08-24T11:40:40;101285.71;;;15.51;100.00
49455;BME280;69710;64.656;21.218;2023-08-24T11:43:08;101285.04;;;15.99;100.00
49455;BME280;69710;64.656;21.218;2023-08-24T11:45:37;101287.13;;;15.80;100.00
49455;BME280;69710;64.656;21.218;2023-08-24T11:48:05;101283.11;;;15.76;100.00
49455;BME280;69710;64.656;21.218;2023-08-24T11:50:34;101281.88;;;15.81;100.00
49455;BME280;69710;64.656;21.218;2023-08-24T11:53:02;101282.28;;;16.00;100.00
49455;BME280;69710;64.656;21.218;2023-08-24T11:55:29;101286.61;;;15.86;100.00
49455;BME280;69710;64.656;21.218;2023-08-24T11:57:59;101285.32;;;15.71;100.00
49455;BME280;69710;64.656;21.218;2023-08-24T12:00:27;101285.03;;;15.84;100.00
49455;BME280;69710;64.656;21.218;2023-08-24T12:02:57;101284.46;;;15.90;100.00
49455;BME280;69710;64.656;21.218;2023-08-24T12:05:26;101285.35;;;15.86;100.00
49455;BME280;69710;64.656;21.218;2023-08-24T12:07:55;101287.86;;;15.85;100.00
49455;BME280;69710;64.656;21.218;2023-08-24T12:10:22;101291.68;;;15.62;100.00
49455;BME280;69710;64.656;21.218;2023-08-24T12:13:02;101290.64;;;15.58;100.00
49455;BME280;69710;64.656;21.218;2023-08-24T12:15:30;101290.36;;;15.88;100.00
49455;BME280;69710;64.656;21.218;2023-08-24T12:18:07;101285.08;;;15.85;100.00
49455;BME280;69710;64.656;21.218;2023-08-24T12:20:35;101283.43;;;15.90;100.00
49455;BME280;69710;64.656;21.218;2023-08-24T12:23:05;101282.75;;;15.67;100.00
49455;BME280;69710;64.656;21.218;2023-08-24T12:25:42;101282.32;;;15.84;100.00
49455;BME280;69710;64.656;21.218;2023-08-24T12:28:11;101283.59;;;16.34;100.00
49455;BME280;69710;64.656;21.218;2023-08-24T12:30:48;101285.39;;;15.83;100.00
49455;BME280;69710;64.656;21.218;2023-08-24T12:33:27;101286.60;;;16.04;100.00
49455;BME280;69710;64.656;21.218;2023-08-24T12:35:56;101286.50;;;16.09;100.00
49455;BME280;69710;64.656;21.218;2023-08-24T12:38:24;101285.19;;;16.08;100.00